createdAt,value
2022-09-07T00:00:13.999Z,94.61
2022-09-07T00:02:44.612Z,94.93
2022-09-07T00:05:15.171Z,95.30
2022-09-07T00:07:45.736Z,95.08
2022-09-07T00:10:16.422Z,95.12
2022-09-07T00:12:47.260Z,94.78
2022-09-07T00:15:17.744Z,95.04
2022-09-07T00:17:48.216Z,94.85
2022-09-07T00:20:18.966Z,94.96
2022-09-07T00:22:49.585Z,95.53
2022-09-07T00:25:20.095Z,95.61
2022-09-07T00:27:51.290Z,95.62
2022-09-07T00:30:22.159Z,95.29
2022-09-07T00:32:52.980Z,95.51
2022-09-07T00:35:23.511Z,95.38
2022-09-07T00:37:54.007Z,95.39
2022-09-07T00:40:24.461Z,95.51
2022-09-07T00:42:54.517Z,95.31
2022-09-07T00:45:25.428Z,95.91
2022-09-07T00:48:10.938Z,96.07
2022-09-07T00:50:53.278Z,96.44
2022-09-07T00:53:51.055Z,96.12
2022-09-07T00:56:23.813Z,96.65
2022-09-07T00:58:55.195Z,96.36
2022-09-07T01:01:26.584Z,96.49
2022-09-07T01:04:00.964Z,96.87
2022-09-07T01:06:37.731Z,96.84
2022-09-07T01:09:12.561Z,96.61
2022-09-07T01:11:47.008Z,96.53
2022-09-07T01:14:19.062Z,96.39
2022-09-07T01:17:01.684Z,96.29
2022-09-07T01:20:05.414Z,96.43
2022-09-07T01:23:03.891Z,96.08
2022-09-07T01:25:57.000Z,96.08
2022-09-07T01:28:33.983Z,96.10
2022-09-07T01:31:14.169Z,96.65
2022-09-07T01:33:47.715Z,96.53
2022-09-07T01:36:36.487Z,96.05
2022-09-07T01:39:09.508Z,96.42
2022-09-07T01:42:00.023Z,96.21
2022-09-07T01:44:37.173Z,96.57
2022-09-07T01:47:25.187Z,96.49
2022-09-07T01:50:12.489Z,96.33
2022-09-07T01:52:50.116Z,96.27
2022-09-07T01:55:35.224Z,95.83
2022-09-07T01:58:42.114Z,95.90
2022-09-07T02:01:25.618Z,96.39
2022-09-07T02:04:14.269Z,96.75
2022-09-07T02:06:44.586Z,96.22
2022-09-07T02:09:43.555Z,96.15
2022-09-07T02:12:29.603Z,96.06
2022-09-07T02:15:08.033Z,96.40
2022-09-07T02:17:45.886Z,96.68
2022-09-07T02:20:22.474Z,96.67
2022-09-07T02:22:58.611Z,96.09
2022-09-07T02:25:35.395Z,96.55
2022-09-07T02:28:27.949Z,96.82
2022-09-07T02:30:58.993Z,97.11
2022-09-07T02:33:30.843Z,97.40
2022-09-07T02:36:03.222Z,97.08
2022-09-07T02:38:34.886Z,97.27
2022-09-07T02:41:06.310Z,97.00
2022-09-07T02:43:37.117Z,96.94
2022-09-07T02:46:21.684Z,96.78
2022-09-07T02:48:57.558Z,97.20
2022-09-07T02:51:52.346Z,97.31
2022-09-07T02:54:35.995Z,97.43
2022-09-07T02:57:42.689Z,97.48
2022-09-07T03:00:17.941Z,97.48
2022-09-07T03:03:07.693Z,97.70
2022-09-07T03:05:49.286Z,97.42
2022-09-07T03:08:50.454Z,97.53
2022-09-07T03:11:21.383Z,97.92
2022-09-07T03:13:51.978Z,98.06
2022-09-07T03:16:22.479Z,97.88
2022-09-07T03:18:53.104Z,97.49
2022-09-07T03:21:23.615Z,97.92
2022-09-07T03:23:53.816Z,97.38
2022-09-07T03:26:29.042Z,97.11
2022-09-07T03:28:59.512Z,97.52
2022-09-07T03:31:29.813Z,97.56
2022-09-07T03:34:00.310Z,97.89
2022-09-07T03:36:32.346Z,97.96
2022-09-07T03:39:04.169Z,97.84
2022-09-07T03:41:35.071Z,98.28
2022-09-07T03:44:09.856Z,98.38
2022-09-07T03:46:40.404Z,98.15
2022-09-07T03:49:10.909Z,98.19
2022-09-07T03:51:41.333Z,98.51
2022-09-07T03:54:12.035Z,98.17
2022-09-07T03:56:42.642Z,98.25
2022-09-07T03:59:13.111Z,98.30
2022-09-07T04:01:43.661Z,98.16
2022-09-07T04:04:14.931Z,98.35
2022-09-07T04:06:45.395Z,98.35
2022-09-07T04:09:15.886Z,97.85
2022-09-07T04:11:46.235Z,98.07
2022-09-07T04:14:16.339Z,97.68
2022-09-07T04:16:46.813Z,98.28
2022-09-07T04:19:17.554Z,98.49
2022-09-07T04:21:48.516Z,98.13
2022-09-07T04:24:20.051Z,98.76
2022-09-07T04:26:50.513Z,98.70
2022-09-07T04:29:20.538Z,98.08
2022-09-07T04:31:50.875Z,98.32
2022-09-07T04:34:20.824Z,97.86
2022-09-07T04:36:50.932Z,98.02
2022-09-07T04:39:21.426Z,97.68
2022-09-07T04:41:51.770Z,98.00
2022-09-07T04:44:22.198Z,97.93
2022-09-07T04:46:52.139Z,97.62
2022-09-07T04:49:22.371Z,98.00
2022-09-07T04:51:52.208Z,97.85
2022-09-07T04:54:22.771Z,98.40
2022-09-07T04:56:53.186Z,98.68
2022-09-07T04:59:24.079Z,99.13
2022-09-07T05:01:54.615Z,99.04
2022-09-07T05:04:25.091Z,98.97
2022-09-07T05:06:56.547Z,98.47
2022-09-07T05:09:26.998Z,98.81
2022-09-07T05:11:57.644Z,98.57
2022-09-07T05:14:28.204Z,98.91
2022-09-07T05:16:58.696Z,98.40
2022-09-07T05:19:29.430Z,97.81
2022-09-07T05:22:00.061Z,98.36
2022-09-07T05:24:30.021Z,97.66
2022-09-07T05:27:03.109Z,97.65
2022-09-07T05:32:24.039Z,97.56
2022-09-07T05:34:55.074Z,97.67
2022-09-07T05:37:25.394Z,97.49
2022-09-07T05:39:57.917Z,97.00
2022-09-07T05:42:28.398Z,97.38
2022-09-07T05:44:58.406Z,96.99
2022-09-07T05:47:29.193Z,97.59
2022-09-07T05:49:59.558Z,98.00
2022-09-07T05:52:30.067Z,98.15
2022-09-07T05:55:19.396Z,98.22
2022-09-07T05:57:51.117Z,98.03
2022-09-07T06:00:22.839Z,97.54
2022-09-07T06:02:53.273Z,97.65
2022-09-07T06:05:23.757Z,98.04
2022-09-07T06:07:54.435Z,97.57
2022-09-07T06:13:15.113Z,97.92
2022-09-07T06:15:45.175Z,97.56
2022-09-07T06:18:15.718Z,97.89
2022-09-07T06:20:46.154Z,97.89
2022-09-07T06:23:16.105Z,97.50
2022-09-07T06:25:52.618Z,97.97
2022-09-07T06:28:22.589Z,97.56
2022-09-07T06:30:52.748Z,97.91
2022-09-07T06:33:22.621Z,97.67
2022-09-07T06:36:00.267Z,97.65
2022-09-07T06:38:39.004Z,97.45
2022-09-07T06:44:04.611Z,97.87
2022-09-07T06:49:26.557Z,98.24
2022-09-07T06:51:56.997Z,98.39
2022-09-07T06:57:17.459Z,98.31
2022-09-07T06:59:47.923Z,98.51
2022-09-07T07:02:17.953Z,98.07
2022-09-07T07:04:48.448Z,98.61
2022-09-07T07:07:18.409Z,98.05
2022-09-07T07:09:51.366Z,98.46
2022-09-07T07:14:49.756Z,98.86
2022-09-07T07:17:19.607Z,98.44
2022-09-07T07:19:49.632Z,99.02
2022-09-07T07:25:11.415Z,99.06
2022-09-07T07:27:41.856Z,99.28
2022-09-07T07:30:12.710Z,99.19
2022-09-07T07:32:44.334Z,99.12
2022-09-07T07:35:15.917Z,99.27
2022-09-07T07:37:46.699Z,99.32
2022-09-07T07:40:19.176Z,99.33
2022-09-07T07:42:53.945Z,99.62
2022-09-07T07:48:14.876Z,99.99
2022-09-07T07:50:45.310Z,99.99
2022-09-07T07:56:12.972Z,99.99
2022-09-07T07:58:48.265Z,99.99
2022-09-07T08:01:20.593Z,99.99
2022-09-07T08:03:51.161Z,99.99
2022-09-07T08:06:23.324Z,99.99
2022-09-07T08:08:53.814Z,99.99
2022-09-07T08:11:24.523Z,99.99
2022-09-07T08:13:56.254Z,99.99
2022-09-07T08:16:26.880Z,99.93
2022-09-07T08:18:57.491Z,99.83
2022-09-07T08:21:28.074Z,99.87
2022-09-07T08:23:58.609Z,99.77
2022-09-07T08:26:29.689Z,99.74
2022-09-07T08:29:00.248Z,99.74
2022-09-07T08:31:30.979Z,99.99
2022-09-07T08:34:03.202Z,99.99
2022-09-07T08:36:33.917Z,99.99
2022-09-07T08:39:04.869Z,99.99
2022-09-07T08:41:47.832Z,99.99
2022-09-07T08:44:27.290Z,99.99
2022-09-07T08:47:06.268Z,99.99
2022-09-07T08:50:02.731Z,99.99
2022-09-07T08:53:03.137Z,99.99
2022-09-07T08:56:18.006Z,99.86
2022-09-07T08:58:54.773Z,99.82
2022-09-07T09:01:34.052Z,99.95
2022-09-07T09:04:19.342Z,99.99
2022-09-07T09:07:07.181Z,99.99
2022-09-07T09:09:55.884Z,99.81
2022-09-07T09:12:56.447Z,99.84
2022-09-07T09:15:53.818Z,99.80
2022-09-07T09:19:10.396Z,99.75
2022-09-07T09:21:42.872Z,99.99
2022-09-07T09:24:21.319Z,99.99
2022-09-07T09:26:56.358Z,99.99
2022-09-07T09:29:26.900Z,99.99
2022-09-07T09:31:57.811Z,99.70
2022-09-07T09:34:31.250Z,99.76
2022-09-07T09:37:03.953Z,99.78
2022-09-07T09:39:45.768Z,99.99
2022-09-07T09:42:17.951Z,99.99
2022-09-07T09:44:49.253Z,99.99
2022-09-07T09:47:35.999Z,99.99
2022-09-07T09:53:28.436Z,99.99
2022-09-07T09:55:58.925Z,99.99
2022-09-07T10:01:28.097Z,99.99
2022-09-07T10:04:01.072Z,99.99
2022-09-07T10:06:31.877Z,99.99
2022-09-07T10:09:03.920Z,99.96
2022-09-07T10:14:49.061Z,99.76
2022-09-07T10:17:31.545Z,99.61
2022-09-07T10:20:18.434Z,99.65
2022-09-07T10:23:21.173Z,99.72
2022-09-07T10:25:52.553Z,99.77
2022-09-07T10:29:06.161Z,99.87
2022-09-07T10:31:38.094Z,99.65
2022-09-07T10:34:27.003Z,99.42
2022-09-07T10:37:12.446Z,99.38
2022-09-07T10:40:20.721Z,99.13
2022-09-07T10:43:21.853Z,99.36
2022-09-07T10:46:14.233Z,99.31
2022-09-07T10:49:03.105Z,99.49
2022-09-07T10:51:58.848Z,99.09
2022-09-07T10:54:41.733Z,99.14
2022-09-07T10:57:44.550Z,98.50
2022-09-07T11:00:24.046Z,98.22
2022-09-07T11:03:33.154Z,98.22
2022-09-07T11:06:39.027Z,98.41
2022-09-07T11:09:34.112Z,98.58
2022-09-07T11:12:30.822Z,98.36
2022-09-07T11:15:16.592Z,98.33
2022-09-07T11:18:15.791Z,98.64
2022-09-07T11:20:56.833Z,98.17
2022-09-07T11:24:01.521Z,97.95
2022-09-07T11:26:41.484Z,96.15
2022-09-07T11:29:32.429Z,95.81
2022-09-07T11:32:16.309Z,96.16
2022-09-07T11:34:58.835Z,95.56
2022-09-07T11:37:41.617Z,94.59
2022-09-07T11:40:23.024Z,94.74
2022-09-07T11:43:01.037Z,93.83
2022-09-07T11:45:42.972Z,94.00
2022-09-07T11:48:21.360Z,93.05
2022-09-07T11:50:59.327Z,93.34
2022-09-07T11:53:34.304Z,93.27
2022-09-07T11:56:15.871Z,93.78
2022-09-07T11:59:16.718Z,92.78
2022-09-07T12:01:53.345Z,93.23
2022-09-07T12:04:58.820Z,92.36
2022-09-07T12:07:52.572Z,91.66
2022-09-07T12:10:41.168Z,92.45
2022-09-07T12:13:20.979Z,93.82
2022-09-07T12:16:13.821Z,93.14
2022-09-07T12:19:16.730Z,92.54
2022-09-07T12:21:53.215Z,92.39
2022-09-07T12:24:41.582Z,91.72
2022-09-07T12:27:23.965Z,91.37
2022-09-07T12:30:02.784Z,89.87
2022-09-07T12:32:58.053Z,89.34
2022-09-07T12:35:29.496Z,88.94
2022-09-07T12:38:04.614Z,88.38
2022-09-07T12:40:38.674Z,87.86
2022-09-07T12:43:15.156Z,87.95
2022-09-07T12:45:51.028Z,87.12
2022-09-07T12:48:21.407Z,86.35
2022-09-07T12:51:02.792Z,86.21
2022-09-07T12:53:50.039Z,85.64
2022-09-07T12:57:29.051Z,85.48
2022-09-07T12:59:42.125Z,83.94
2022-09-07T13:02:12.060Z,86.46
2022-09-07T13:05:07.506Z,85.61
2022-09-07T13:08:07.227Z,85.13
2022-09-07T13:10:39.755Z,85.47
2022-09-07T13:16:31.414Z,81.55
2022-09-07T13:19:04.401Z,81.17
2022-09-07T13:21:50.073Z,80.61
2022-09-07T13:27:48.061Z,79.70
2022-09-07T13:30:17.975Z,80.17
2022-09-07T13:35:39.098Z,77.15
2022-09-07T13:38:16.870Z,76.87
2022-09-07T13:40:50.100Z,77.23
2022-09-07T13:43:27.022Z,74.66
2022-09-07T13:45:57.770Z,75.36
2022-09-07T13:48:52.202Z,77.58
2022-09-07T13:51:42.133Z,77.36
2022-09-07T13:54:40.369Z,76.12
2022-09-07T13:57:29.343Z,73.90
2022-09-07T14:00:00.197Z,73.66
2022-09-07T14:02:41.415Z,73.00
2022-09-07T14:05:21.658Z,72.97
2022-09-07T14:07:52.173Z,71.97
2022-09-07T14:10:26.435Z,72.04
2022-09-07T14:13:09.301Z,71.31
2022-09-07T14:15:43.348Z,70.73
2022-09-07T14:18:16.167Z,69.26
2022-09-07T14:20:49.946Z,68.02
2022-09-07T14:23:36.310Z,68.66
2022-09-07T14:26:18.304Z,68.29
2022-09-07T14:28:52.768Z,66.48
2022-09-07T14:31:26.036Z,65.93
2022-09-07T14:33:59.486Z,67.89
2022-09-07T14:36:45.694Z,68.39
2022-09-07T14:39:19.143Z,67.68
2022-09-07T14:41:50.372Z,69.36
2022-09-07T14:44:34.989Z,68.48
2022-09-07T14:47:09.903Z,68.26
2022-09-07T14:49:40.784Z,69.90
2022-09-07T14:52:21.697Z,69.82
2022-09-07T14:54:56.109Z,68.64
2022-09-07T14:57:33.774Z,69.22
2022-09-07T15:00:43.909Z,71.07
2022-09-07T15:03:26.655Z,70.80
2022-09-07T15:06:01.346Z,71.00
2022-09-07T15:08:42.336Z,68.75
2022-09-07T15:11:34.114Z,67.81
2022-09-07T15:14:12.056Z,67.95
2022-09-07T15:16:45.740Z,68.12
2022-09-07T15:19:19.847Z,67.23
2022-09-07T15:21:50.496Z,68.24
2022-09-07T15:24:20.904Z,66.77
2022-09-07T15:27:02.966Z,65.45
2022-09-07T15:29:33.822Z,65.92
2022-09-07T15:32:05.291Z,66.04
2022-09-07T15:34:38.448Z,65.16
2022-09-07T15:39:59.702Z,61.84
2022-09-07T15:45:20.940Z,65.14
2022-09-07T15:47:53.364Z,64.17
2022-09-07T15:50:24.036Z,67.82
2022-09-07T15:52:54.434Z,68.19
2022-09-07T15:55:26.564Z,67.13
2022-09-07T15:58:10.596Z,66.71
2022-09-07T16:00:42.183Z,64.21
2022-09-07T16:03:12.856Z,64.86
2022-09-07T16:05:45.498Z,63.52
2022-09-07T16:08:33.012Z,63.29
2022-09-07T16:11:28.774Z,63.33
2022-09-07T16:14:02.023Z,63.83
2022-09-07T16:19:26.623Z,60.87
2022-09-07T16:21:57.534Z,59.97
2022-09-07T16:24:29.676Z,63.30
2022-09-07T16:27:00.093Z,59.84
2022-09-07T16:29:30.722Z,59.57
2022-09-07T16:34:52.297Z,60.43
2022-09-07T16:37:22.672Z,62.59
2022-09-07T16:39:53.846Z,61.34
2022-09-07T16:42:25.377Z,60.09
2022-09-07T16:46:02.740Z,58.38
2022-09-07T16:47:46.286Z,60.30
2022-09-07T16:50:16.836Z,60.06
2022-09-07T16:52:47.431Z,58.70
2022-09-07T16:55:18.213Z,59.04
2022-09-07T17:00:39.679Z,59.61
2022-09-07T17:03:10.782Z,57.49
2022-09-07T17:05:42.544Z,55.14
2022-09-07T17:08:13.038Z,56.70
2022-09-07T17:10:43.714Z,54.87
2022-09-07T17:13:14.224Z,55.23
2022-09-07T17:15:44.918Z,54.82
2022-09-07T17:18:16.736Z,52.84
2022-09-07T17:20:59.879Z,53.99
2022-09-07T17:23:31.026Z,55.14
2022-09-07T17:26:12.762Z,54.36
2022-09-07T17:28:45.352Z,54.78
2022-09-07T17:34:14.504Z,51.73
2022-09-07T17:36:45.073Z,53.09
2022-09-07T17:39:17.500Z,54.95
2022-09-07T17:41:52.242Z,56.01
2022-09-07T17:44:24.550Z,52.07
2022-09-07T17:46:55.074Z,49.76
2022-09-07T17:49:26.394Z,48.84
2022-09-07T17:51:59.774Z,54.19
2022-09-07T17:54:30.691Z,48.45
2022-09-07T17:57:01.420Z,53.47
2022-09-07T18:02:22.765Z,51.99
2022-09-07T18:04:53.320Z,54.02
2022-09-07T18:07:23.867Z,49.17
2022-09-07T18:09:54.367Z,52.48
2022-09-07T18:12:25.041Z,52.75
2022-09-07T18:14:55.465Z,53.18
2022-09-07T18:17:26.020Z,55.85
2022-09-07T18:19:56.647Z,54.63
2022-09-07T18:22:27.327Z,54.45
2022-09-07T18:24:57.711Z,55.56
2022-09-07T18:27:28.346Z,54.14
2022-09-07T18:29:59.127Z,55.34
2022-09-07T18:32:29.452Z,51.93
2022-09-07T18:34:59.891Z,52.76
2022-09-07T18:37:31.499Z,50.85
2022-09-07T18:40:02.563Z,49.42
2022-09-07T18:42:33.482Z,53.44
2022-09-07T18:47:54.870Z,57.13
2022-09-07T18:50:25.632Z,54.91
2022-09-07T18:53:03.999Z,51.10
2022-09-07T18:55:37.958Z,52.27
2022-09-07T18:58:08.917Z,54.98
2022-09-07T19:00:45.069Z,54.06
2022-09-07T19:03:16.780Z,55.56
2022-09-07T19:05:52.481Z,57.60
2022-09-07T19:08:23.321Z,58.63
2022-09-07T19:10:54.204Z,60.14
2022-09-07T19:13:24.735Z,61.17
2022-09-07T19:15:55.268Z,60.08
2022-09-07T19:18:25.813Z,60.58
2022-09-07T19:20:56.218Z,61.88
2022-09-07T19:23:26.855Z,59.95
2022-09-07T19:26:00.362Z,61.81
2022-09-07T19:28:31.416Z,62.86
2022-09-07T19:31:09.263Z,62.74
2022-09-07T19:33:39.773Z,63.66
2022-09-07T19:36:10.663Z,62.76
2022-09-07T19:38:41.569Z,61.64
2022-09-07T19:41:14.287Z,62.06
2022-09-07T19:43:44.984Z,62.67
2022-09-07T19:46:18.547Z,62.79
2022-09-07T19:48:50.950Z,63.79
2022-09-07T19:51:21.535Z,63.54
2022-09-07T19:53:52.112Z,63.58
2022-09-07T19:56:25.777Z,63.55
2022-09-07T19:58:56.818Z,63.67
2022-09-07T20:01:27.850Z,63.81
2022-09-07T20:04:01.926Z,64.63
2022-09-07T20:06:34.682Z,64.28
2022-09-07T20:09:05.803Z,65.35
2022-09-07T20:11:37.937Z,65.67
2022-09-07T20:14:08.961Z,65.68
2022-09-07T20:16:41.984Z,67.31
2022-09-07T20:19:16.863Z,66.96
2022-09-07T20:21:47.783Z,67.51
2022-09-07T20:24:23.607Z,68.69
2022-09-07T20:26:54.188Z,70.27
2022-09-07T20:29:27.726Z,68.05
2022-09-07T20:32:02.565Z,67.27
2022-09-07T20:34:33.688Z,66.80
2022-09-07T20:37:04.127Z,66.79
2022-09-07T20:39:38.889Z,66.93
2022-09-07T20:42:09.903Z,66.87
2022-09-07T20:44:40.473Z,66.46
2022-09-07T20:47:11.033Z,67.34
2022-09-07T20:49:41.745Z,67.88
2022-09-07T20:52:12.250Z,69.54
2022-09-07T20:54:42.816Z,68.62
2022-09-07T20:57:13.309Z,68.38
2022-09-07T20:59:44.059Z,68.09
2022-09-07T21:02:14.536Z,67.90
2022-09-07T21:04:49.394Z,67.39
2022-09-07T21:07:20.587Z,66.63
2022-09-07T21:09:52.771Z,66.86
2022-09-07T21:12:23.855Z,66.42
2022-09-07T21:14:54.605Z,67.73
2022-09-07T21:17:25.220Z,68.18
2022-09-07T21:19:55.680Z,66.57
2022-09-07T21:22:26.232Z,68.09
2022-09-07T21:24:56.887Z,69.41
2022-09-07T21:27:27.314Z,69.29
2022-09-07T21:29:57.783Z,70.08
2022-09-07T21:32:28.270Z,69.93
2022-09-07T21:34:58.949Z,69.88
2022-09-07T21:37:29.451Z,69.59
2022-09-07T21:40:00.060Z,68.56
2022-09-07T21:42:30.657Z,70.64
2022-09-07T21:45:01.399Z,72.02
2022-09-07T21:47:31.840Z,71.72
2022-09-07T21:50:02.413Z,70.27
2022-09-07T21:52:33.369Z,71.27
2022-09-07T21:55:03.919Z,71.26
2022-09-07T21:57:34.441Z,71.52
2022-09-07T22:00:06.426Z,71.70
2022-09-07T22:02:38.226Z,71.75
2022-09-07T22:05:09.402Z,71.18
2022-09-07T22:07:39.879Z,71.79
2022-09-07T22:10:11.087Z,71.62
2022-09-07T22:12:41.780Z,71.90
2022-09-07T22:15:12.806Z,74.46
2022-09-07T22:17:46.172Z,71.62
2022-09-07T22:20:17.184Z,72.04
2022-09-07T22:22:47.791Z,71.78
2022-09-07T22:25:18.395Z,71.91
2022-09-07T22:27:49.068Z,72.14
2022-09-07T22:30:19.766Z,71.32
2022-09-07T22:32:51.267Z,71.66
2022-09-07T22:35:22.605Z,73.41
2022-09-07T22:37:53.151Z,72.51
2022-09-07T22:40:23.697Z,72.77
2022-09-07T22:42:54.184Z,73.85
2022-09-07T22:45:24.658Z,73.50
2022-09-07T22:47:54.316Z,73.55
2022-09-07T22:50:24.613Z,73.88
2022-09-07T22:52:55.039Z,75.64
2022-09-07T22:55:25.547Z,76.06
2022-09-07T22:57:56.840Z,75.87
2022-09-07T23:00:27.385Z,74.79
2022-09-07T23:02:57.106Z,74.42
2022-09-07T23:05:27.975Z,74.28
2022-09-07T23:07:58.456Z,76.65
2022-09-07T23:10:28.278Z,76.08
2022-09-07T23:12:58.799Z,76.50
2022-09-07T23:15:29.394Z,77.04
2022-09-07T23:17:59.874Z,76.42
2022-09-07T23:20:30.422Z,77.33
2022-09-07T23:23:00.987Z,76.40
2022-09-07T23:25:31.663Z,77.01
2022-09-07T23:28:02.155Z,77.67
2022-09-07T23:30:32.930Z,76.89
2022-09-07T23:33:05.974Z,77.81
2022-09-07T23:35:36.652Z,76.70
2022-09-07T23:38:07.212Z,76.81
2022-09-07T23:40:37.852Z,77.42
2022-09-07T23:43:08.338Z,76.03
2022-09-07T23:45:38.981Z,77.72
2022-09-07T23:48:09.409Z,78.29
2022-09-07T23:50:40.004Z,76.67
2022-09-07T23:53:10.707Z,76.43
2022-09-07T23:55:41.678Z,75.84
2022-09-07T23:58:12.362Z,78.12
